sensor_id;sensor_type;location;lat;lon;timestamp;pressure;altitude;pressure_sealevel;temperature;humidity
41202;BME280;26936;50.524;8.684;2022-11-11T00:00:24;100828.50;;;6.06;100.00
41202;BME280;26936;50.524;8.684;2022-11-11T00:02:49;100828.50;;;6.06;100.00
41202;BME280;26936;50.524;8.684;2022-11-11T00:05:15;100835.28;;;6.05;100.00
41202;BME280;26936;50.524;8.684;2022-11-11T00:07:41;100838.09;;;6.05;100.00
41202;BME280;26936;50.524;8.684;2022-11-11T00:10:07;100843.25;;;6.03;100.00
41202;BME280;26936;50.524;8.684;2022-11-11T00:12:33;100835.25;;;6.01;100.00
41202;BME280;26936;50.524;8.684;2022-11-11T00:14:58;100828.84;;;6.01;100.00
41202;BME280;26936;50.524;8.684;2022-11-11T00:17:24;100845.28;;;6.06;100.00
41202;BME280;26936;50.524;8.684;2022-11-11T00:20:09;100834.19;;;6.16;100.00
41202;BME280;26936;50.524;8.684;2022-11-11T00:22:53;100832.19;;;6.20;100.00
41202;BME280;26936;50.524;8.684;2022-11-11T00:25:37;100833.84;;;6.25;100.00
41202;BME280;26936;50.524;8.684;2022-11-11T00:28:03;100832.28;;;6.31;100.00
41202;BME280;26936;50.524;8.684;2022-11-11T00:30:28;100832.28;;;6.31;100.00
41202;BME280;26936;50.524;8.684;2022-11-11T00:32:54;100826.72;;;6.34;100.00
41202;BME280;26936;50.524;8.684;2022-11-11T00:35:19;100836.72;;;6.35;100.00
41202;BME280;26936;50.524;8.684;2022-11-11T00:38:10;100836.34;;;6.40;100.00
41202;BME280;26936;50.524;8.684;2022-11-11T00:40:36;100833.59;;;6.47;100.00
41202;BME280;26936;50.524;8.684;2022-11-11T00:43:01;100838.06;;;6.59;100.00
41202;BME280;26936;50.524;8.684;2022-11-11T00:45:27;100844.06;;;6.61;100.00
41202;BME280;26936;50.524;8.684;2022-11-11T00:47:52;100843.63;;;6.52;100.00
41202;BME280;26936;50.524;8.684;2022-11-11T00:50:35;100844.41;;;6.49;100.00
41202;BME280;26936;50.524;8.684;2022-11-11T00:53:22;100832.34;;;6.38;100.00
41202;BME280;26936;50.524;8.684;2022-11-11T00:55:48;100822.31;;;6.37;100.00
41202;BME280;26936;50.524;8.684;2022-11-11T00:58:13;100836.25;;;6.30;100.00
41202;BME280;26936;50.524;8.684;2022-11-11T01:00:41;100816.66;;;6.30;100.00
41202;BME280;26936;50.524;8.684;2022-11-11T01:03:06;100813.47;;;6.28;100.00
41202;BME280;26936;50.524;8.684;2022-11-11T01:05:31;100809.78;;;6.13;100.00
41202;BME280;26936;50.524;8.684;2022-11-11T01:07:57;100816.94;;;6.11;100.00
41202;BME280;26936;50.524;8.684;2022-11-11T01:10:22;100827.75;;;6.12;100.00
41202;BME280;26936;50.524;8.684;2022-11-11T01:13:05;100829.72;;;6.08;100.00
41202;BME280;26936;50.524;8.684;2022-11-11T01:15:37;100837.28;;;6.04;100.00
41202;BME280;26936;50.524;8.684;2022-11-11T01:18:02;100837.66;;;6.03;100.00
41202;BME280;26936;50.524;8.684;2022-11-11T01:20:28;100839.28;;;6.07;100.00
41202;BME280;26936;50.524;8.684;2022-11-11T01:22:53;100831.34;;;6.13;100.00
41202;BME280;26936;50.524;8.684;2022-11-11T01:25:18;100834.25;;;6.27;100.00
41202;BME280;26936;50.524;8.684;2022-11-11T01:27:44;100821.47;;;6.26;100.00
41202;BME280;26936;50.524;8.684;2022-11-11T01:30:09;100832.63;;;6.22;100.00
41202;BME280;26936;50.524;8.684;2022-11-11T01:32:38;100818.34;;;6.38;100.00
41202;BME280;26936;50.524;8.684;2022-11-11T01:35:04;100802.38;;;6.42;100.00
41202;BME280;26936;50.524;8.684;2022-11-11T01:37:32;100805.13;;;6.35;100.00
41202;BME280;26936;50.524;8.684;2022-11-11T01:39:57;100807.91;;;6.35;100.00
41202;BME280;26936;50.524;8.684;2022-11-11T01:42:22;100812.72;;;6.34;100.00
41202;BME280;26936;50.524;8.684;2022-11-11T01:44:47;100821.81;;;6.21;100.00
41202;BME280;26936;50.524;8.684;2022-11-11T01:47:15;100819.44;;;6.23;100.00
41202;BME280;26936;50.524;8.684;2022-11-11T01:52:26;100813.06;;;6.26;100.00
41202;BME280;26936;50.524;8.684;2022-11-11T01:55:10;100822.25;;;6.23;100.00
41202;BME280;26936;50.524;8.684;2022-11-11T01:57:48;100832.16;;;6.13;100.00
41202;BME280;26936;50.524;8.684;2022-11-11T02:00:17;100830.13;;;6.07;100.00
41202;BME280;26936;50.524;8.684;2022-11-11T02:02:46;100831.66;;;6.01;100.00
41202;BME280;26936;50.524;8.684;2022-11-11T02:05:14;100849.28;;;6.05;100.00
41202;BME280;26936;50.524;8.684;2022-11-11T02:08:02;100865.59;;;5.99;100.00
41202;BME280;26936;50.524;8.684;2022-11-11T02:10:30;100859.66;;;6.04;100.00
41202;BME280;26936;50.524;8.684;2022-11-11T02:12:56;100853.66;;;6.06;100.00
41202;BME280;26936;50.524;8.684;2022-11-11T02:15:40;100847.28;;;6.05;100.00
41202;BME280;26936;50.524;8.684;2022-11-11T02:18:05;100847.69;;;6.07;100.00
41202;BME280;26936;50.524;8.684;2022-11-11T02:20:36;100849.34;;;6.12;100.00
41202;BME280;26936;50.524;8.684;2022-11-11T02:23:06;100845.34;;;6.13;100.00
41202;BME280;26936;50.524;8.684;2022-11-11T02:25:35;100858.94;;;6.14;100.00
41202;BME280;26936;50.524;8.684;2022-11-11T02:28:03;100868.53;;;6.17;100.00
41202;BME280;26936;50.524;8.684;2022-11-11T02:30:30;100864.16;;;6.19;100.00
41202;BME280;26936;50.524;8.684;2022-11-11T02:32:55;100869.41;;;6.24;100.00
41202;BME280;26936;50.524;8.684;2022-11-11T02:37:55;100868.97;;;6.22;100.00
41202;BME280;26936;50.524;8.684;2022-11-11T02:42:49;100874.59;;;6.22;100.00
41202;BME280;26936;50.524;8.684;2022-11-11T02:45:14;100869.03;;;6.26;100.00
41202;BME280;26936;50.524;8.684;2022-11-11T02:47:40;100867.34;;;6.18;100.00
41202;BME280;26936;50.524;8.684;2022-11-11T02:50:06;100875.28;;;6.12;100.00
41202;BME280;26936;50.524;8.684;2022-11-11T02:52:31;100871.66;;;6.05;100.00
41202;BME280;26936;50.524;8.684;2022-11-11T02:54:57;100862.13;;;6.13;100.00
41202;BME280;26936;50.524;8.684;2022-11-11T02:57:22;100867.25;;;6.07;100.00
41202;BME280;26936;50.524;8.684;2022-11-11T02:59:48;100873.63;;;6.04;100.00
41202;BME280;26936;50.524;8.684;2022-11-11T03:02:13;100869.63;;;6.02;100.00
41202;BME280;26936;50.524;8.684;2022-11-11T03:04:38;100881.22;;;6.04;100.00
41202;BME280;26936;50.524;8.684;2022-11-11T03:07:04;100869.66;;;6.05;100.00
41202;BME280;26936;50.524;8.684;2022-11-11T03:09:30;100875.25;;;6.09;100.00
41202;BME280;26936;50.524;8.684;2022-11-11T03:11:56;100875.63;;;6.04;100.00
41202;BME280;26936;50.524;8.684;2022-11-11T03:14:21;100872.38;;;5.98;100.00
41202;BME280;26936;50.524;8.684;2022-11-11T03:16:47;100869.19;;;6.00;100.00
41202;BME280;26936;50.524;8.684;2022-11-11T03:19:30;100862.44;;;6.04;100.00
41202;BME280;26936;50.524;8.684;2022-11-11T03:21:57;100865.97;;;5.98;100.00
41202;BME280;26936;50.524;8.684;2022-11-11T03:24:22;100874.41;;;6.01;100.00
41202;BME280;26936;50.524;8.684;2022-11-11T03:26:48;100872.44;;;6.02;100.00
41202;BME280;26936;50.524;8.684;2022-11-11T03:29:13;100880.47;;;6.10;100.00
41202;BME280;26936;50.524;8.684;2022-11-11T03:31:38;100878.16;;;6.19;100.00
41202;BME280;26936;50.524;8.684;2022-11-11T03:34:03;100871.25;;;6.06;100.00
41202;BME280;26936;50.524;8.684;2022-11-11T03:36:44;100866.88;;;6.09;100.00
41202;BME280;26936;50.524;8.684;2022-11-11T03:39:29;100865.28;;;6.08;100.00
41202;BME280;26936;50.524;8.684;2022-11-11T03:41:57;100865.25;;;6.04;100.00
41202;BME280;26936;50.524;8.684;2022-11-11T03:44:23;100869.66;;;6.05;100.00
41202;BME280;26936;50.524;8.684;2022-11-11T03:46:48;100872.06;;;6.07;100.00
41202;BME280;26936;50.524;8.684;2022-11-11T03:49:13;100872.47;;;6.05;100.00
41202;BME280;26936;50.524;8.684;2022-11-11T03:51:39;100876.97;;;6.20;100.00
41202;BME280;26936;50.524;8.684;2022-11-11T03:54:04;100884.16;;;6.18;100.00
41202;BME280;26936;50.524;8.684;2022-11-11T03:56:29;100886.97;;;6.21;100.00
41202;BME280;26936;50.524;8.684;2022-11-11T03:58:55;100892.03;;;6.05;100.00
41202;BME280;26936;50.524;8.684;2022-11-11T04:01:20;100887.22;;;6.06;100.00
41202;BME280;26936;50.524;8.684;2022-11-11T04:04:04;100889.97;;;6.02;100.00
41202;BME280;26936;50.524;8.684;2022-11-11T04:06:48;100887.22;;;6.06;100.00
41202;BME280;26936;50.524;8.684;2022-11-11T04:09:32;100897.63;;;6.09;100.00
41202;BME280;26936;50.524;8.684;2022-11-11T04:12:16;100900.44;;;6.09;100.00
41202;BME280;26936;50.524;8.684;2022-11-11T04:14:41;100898.47;;;6.13;100.00
41202;BME280;26936;50.524;8.684;2022-11-11T04:17:25;100891.63;;;6.03;100.00
41202;BME280;26936;50.524;8.684;2022-11-11T04:19:50;100886.03;;;6.03;100.00
41202;BME280;26936;50.524;8.684;2022-11-11T04:22:38;100885.69;;;6.12;100.00
41202;BME280;26936;50.524;8.684;2022-11-11T04:25:04;100881.59;;;5.99;100.00
41202;BME280;26936;50.524;8.684;2022-11-11T04:27:48;100884.84;;;6.08;100.00
41202;BME280;26936;50.524;8.684;2022-11-11T04:30:33;100879.16;;;5.97;100.00
41202;BME280;26936;50.524;8.684;2022-11-11T04:32:58;100878.34;;;5.93;100.00
41202;BME280;26936;50.524;8.684;2022-11-11T04:35:23;100876.00;;;6.02;100.00
41202;BME280;26936;50.524;8.684;2022-11-11T04:37:50;100871.56;;;5.98;100.00
41202;BME280;26936;50.524;8.684;2022-11-11T04:40:16;100874.69;;;5.86;100.00
41202;BME280;26936;50.524;8.684;2022-11-11T04:43:00;100870.38;;;5.95;100.00
41202;BME280;26936;50.524;8.684;2022-11-11T04:45:25;100869.88;;;5.86;100.00
41202;BME280;26936;50.524;8.684;2022-11-11T04:48:09;100866.59;;;5.81;100.00
41202;BME280;26936;50.524;8.684;2022-11-11T04:50:42;100867.78;;;5.80;100.00
41202;BME280;26936;50.524;8.684;2022-11-11T04:53:10;100875.34;;;5.76;100.00
41202;BME280;26936;50.524;8.684;2022-11-11T04:55:36;100886.91;;;5.78;100.00
41202;BME280;26936;50.524;8.684;2022-11-11T04:58:22;100886.97;;;5.81;100.00
41202;BME280;26936;50.524;8.684;2022-11-11T05:00:48;100891.03;;;5.84;100.00
41202;BME280;26936;50.524;8.684;2022-11-11T05:03:14;100888.66;;;5.86;100.00
41202;BME280;26936;50.524;8.684;2022-11-11T05:05:55;100903.69;;;5.74;100.00
41202;BME280;26936;50.524;8.684;2022-11-11T05:08:44;100904.91;;;5.77;100.00
41202;BME280;26936;50.524;8.684;2022-11-11T05:11:35;100905.31;;;5.79;100.00
41202;BME280;26936;50.524;8.684;2022-11-11T05:14:02;100911.00;;;5.82;100.00
41202;BME280;26936;50.524;8.684;2022-11-11T05:16:52;100910.50;;;5.77;100.00
41202;BME280;26936;50.524;8.684;2022-11-11T05:19:36;100915.59;;;5.68;100.00
41202;BME280;26936;50.524;8.684;2022-11-11T05:22:24;100906.81;;;5.69;100.00
41202;BME280;26936;50.524;8.684;2022-11-11T05:24:51;100902.63;;;5.86;100.00
41202;BME280;26936;50.524;8.684;2022-11-11T05:27:35;100905.00;;;5.84;100.00
41202;BME280;26936;50.524;8.684;2022-11-11T05:30:01;100905.72;;;5.77;100.00
41202;BME280;26936;50.524;8.684;2022-11-11T05:32:27;100913.66;;;5.75;100.00
41202;BME280;26936;50.524;8.684;2022-11-11T05:34:53;100912.47;;;5.73;100.00
41202;BME280;26936;50.524;8.684;2022-11-11T05:37:19;100916.06;;;5.77;100.00
41202;BME280;26936;50.524;8.684;2022-11-11T05:39:44;100929.63;;;5.75;100.00
41202;BME280;26936;50.524;8.684;2022-11-11T05:42:10;100922.47;;;5.77;100.00
41202;BME280;26936;50.524;8.684;2022-11-11T05:44:35;100924.84;;;5.75;100.00
41202;BME280;26936;50.524;8.684;2022-11-11T05:47:01;100929.63;;;5.75;100.00
41202;BME280;26936;50.524;8.684;2022-11-11T05:49:26;100938.00;;;5.75;100.00
41202;BME280;26936;50.524;8.684;2022-11-11T05:51:52;100939.59;;;5.72;100.00
41202;BME280;26936;50.524;8.684;2022-11-11T05:54:19;100941.63;;;5.75;100.00
41202;BME280;26936;50.524;8.684;2022-11-11T05:56:45;100934.81;;;5.73;100.00
41202;BME280;26936;50.524;8.684;2022-11-11T05:59:10;100940.78;;;5.71;100.00
41202;BME280;26936;50.524;8.684;2022-11-11T06:01:36;100934.00;;;5.72;100.00
41202;BME280;26936;50.524;8.684;2022-11-11T06:04:02;100936.75;;;5.69;100.00
41202;BME280;26936;50.524;8.684;2022-11-11T06:06:27;100928.81;;;5.71;100.00
41202;BME280;26936;50.524;8.684;2022-11-11T06:08:53;100929.56;;;5.68;100.00
41202;BME280;26936;50.524;8.684;2022-11-11T06:11:18;100934.78;;;5.69;100.00
41202;BME280;26936;50.524;8.684;2022-11-11T06:13:44;100940.75;;;5.68;100.00
41202;BME280;26936;50.524;8.684;2022-11-11T06:16:09;100939.13;;;5.67;100.00
41202;BME280;26936;50.524;8.684;2022-11-11T06:18:34;100946.31;;;5.64;100.00
41202;BME280;26936;50.524;8.684;2022-11-11T06:21:00;100948.66;;;5.62;100.00
41202;BME280;26936;50.524;8.684;2022-11-11T06:23:27;100945.53;;;5.67;100.00
41202;BME280;26936;50.524;8.684;2022-11-11T06:25:53;100952.75;;;5.72;100.00
41202;BME280;26936;50.524;8.684;2022-11-11T06:28:58;100956.00;;;5.74;100.00
41202;BME280;26936;50.524;8.684;2022-11-11T06:31:24;100952.00;;;5.75;100.00
41202;BME280;26936;50.524;8.684;2022-11-11T06:33:50;100957.66;;;5.82;100.00
41202;BME280;26936;50.524;8.684;2022-11-11T06:36:18;100954.13;;;5.85;100.00
41202;BME280;26936;50.524;8.684;2022-11-11T06:38:43;100961.72;;;5.84;100.00
41202;BME280;26936;50.524;8.684;2022-11-11T06:41:10;100963.78;;;5.87;100.00
41202;BME280;26936;50.524;8.684;2022-11-11T06:43:42;100960.47;;;5.82;100.00
41202;BME280;26936;50.524;8.684;2022-11-11T06:46:15;100965.06;;;5.64;100.00
41202;BME280;26936;50.524;8.684;2022-11-11T06:48:42;100973.06;;;5.65;100.00
41202;BME280;26936;50.524;8.684;2022-11-11T06:51:08;100969.34;;;5.54;100.00
41202;BME280;26936;50.524;8.684;2022-11-11T06:53:35;100978.28;;;5.37;100.00
41202;BME280;26936;50.524;8.684;2022-11-11T06:56:00;100981.13;;;5.40;100.00
41202;BME280;26936;50.524;8.684;2022-11-11T06:58:26;100983.88;;;5.37;100.00
41202;BME280;26936;50.524;8.684;2022-11-11T07:00:51;100994.72;;;5.42;100.00
41202;BME280;26936;50.524;8.684;2022-11-11T07:03:18;100989.34;;;5.56;100.00
41202;BME280;26936;50.524;8.684;2022-11-11T07:05:45;100998.09;;;5.54;100.00
41202;BME280;26936;50.524;8.684;2022-11-11T07:08:13;100991.25;;;5.52;100.00
41202;BME280;26936;50.524;8.684;2022-11-11T07:10:43;100997.72;;;5.56;100.00
41202;BME280;26936;50.524;8.684;2022-11-11T07:13:08;101000.50;;;5.56;100.00
41202;BME280;26936;50.524;8.684;2022-11-11T07:15:33;101012.09;;;5.58;100.00
41202;BME280;26936;50.524;8.684;2022-11-11T07:17:59;101002.50;;;5.55;100.00
41202;BME280;26936;50.524;8.684;2022-11-11T07:20:25;100997.00;;;5.63;100.00
41202;BME280;26936;50.524;8.684;2022-11-11T07:22:50;101004.84;;;5.53;100.00
41202;BME280;26936;50.524;8.684;2022-11-11T07:25:15;101005.78;;;5.65;100.00
41202;BME280;26936;50.524;8.684;2022-11-11T07:27:41;101013.44;;;5.68;100.00
41202;BME280;26936;50.524;8.684;2022-11-11T07:30:08;100998.13;;;5.58;100.00
41202;BME280;26936;50.524;8.684;2022-11-11T07:32:34;101002.97;;;5.61;100.00
41202;BME280;26936;50.524;8.684;2022-11-11T07:35:00;101003.34;;;5.60;100.00
41202;BME280;26936;50.524;8.684;2022-11-11T07:37:25;101006.56;;;5.62;100.00
41202;BME280;26936;50.524;8.684;2022-11-11T07:39:51;101001.72;;;5.58;100.00
41202;BME280;26936;50.524;8.684;2022-11-11T07:42:16;101010.97;;;5.63;100.00
41202;BME280;26936;50.524;8.684;2022-11-11T07:44:42;101011.38;;;5.65;100.00
41202;BME280;26936;50.524;8.684;2022-11-11T07:47:07;101018.22;;;5.67;100.00
41202;BME280;26936;50.524;8.684;2022-11-11T07:49:33;101027.47;;;5.75;100.00
41202;BME280;26936;50.524;8.684;2022-11-11T07:51:58;101022.22;;;5.70;100.00
41202;BME280;26936;50.524;8.684;2022-11-11T07:54:24;101022.28;;;5.73;100.00
41202;BME280;26936;50.524;8.684;2022-11-11T07:56:49;101017.06;;;5.72;100.00
41202;BME280;26936;50.524;8.684;2022-11-11T07:59:14;101012.34;;;5.76;100.00
41202;BME280;26936;50.524;8.684;2022-11-11T08:01:40;101012.66;;;5.71;100.00
41202;BME280;26936;50.524;8.684;2022-11-11T08:04:05;101007.56;;;5.80;100.00
41202;BME280;26936;50.524;8.684;2022-11-11T08:06:30;101014.38;;;5.79;100.00
41202;BME280;26936;50.524;8.684;2022-11-11T08:08:56;101013.72;;;5.89;100.00
41202;BME280;26936;50.524;8.684;2022-11-11T08:11:21;101014.47;;;5.86;100.00
41202;BME280;26936;50.524;8.684;2022-11-11T08:14:07;101018.53;;;5.92;100.00
41202;BME280;26936;50.524;8.684;2022-11-11T08:16:32;101011.78;;;5.96;100.00
41202;BME280;26936;50.524;8.684;2022-11-11T08:18:58;101012.25;;;6.02;100.00
41202;BME280;26936;50.524;8.684;2022-11-11T08:21:23;101023.13;;;6.10;100.00
41202;BME280;26936;50.524;8.684;2022-11-11T08:23:49;101023.16;;;6.14;100.00
41202;BME280;26936;50.524;8.684;2022-11-11T08:26:15;101032.72;;;6.09;100.00
41202;BME280;26936;50.524;8.684;2022-11-11T08:28:41;101028.84;;;6.21;100.00
41202;BME280;26936;50.524;8.684;2022-11-11T08:31:06;101033.31;;;6.29;100.00
41202;BME280;26936;50.524;8.684;2022-11-11T08:33:31;101032.59;;;6.35;100.00
41202;BME280;26936;50.524;8.684;2022-11-11T08:35:58;101033.44;;;6.43;100.00
41202;BME280;26936;50.524;8.684;2022-11-11T08:38:24;101024.31;;;6.49;100.00
41202;BME280;26936;50.524;8.684;2022-11-11T08:40:50;101026.38;;;6.56;100.00
41202;BME280;26936;50.524;8.684;2022-11-11T08:43:16;101026.84;;;6.61;100.00
41202;BME280;26936;50.524;8.684;2022-11-11T08:45:42;101027.34;;;6.70;100.00
41202;BME280;26936;50.524;8.684;2022-11-11T08:48:08;101025.31;;;6.71;100.00
41202;BME280;26936;50.524;8.684;2022-11-11T08:50:37;101018.94;;;6.70;100.00
41202;BME280;26936;50.524;8.684;2022-11-11T08:53:05;101023.53;;;6.96;100.00
41202;BME280;26936;50.524;8.684;2022-11-11T08:55:31;101022.69;;;6.92;100.00
41202;BME280;26936;50.524;8.684;2022-11-11T08:58:00;101037.94;;;6.95;100.00
41202;BME280;26936;50.524;8.684;2022-11-11T09:00:26;101034.69;;;6.93;100.00
41202;BME280;26936;50.524;8.684;2022-11-11T09:02:52;101041.16;;;6.97;100.00
41202;BME280;26936;50.524;8.684;2022-11-11T09:05:18;101037.19;;;7.08;100.00
41202;BME280;26936;50.524;8.684;2022-11-11T09:07:43;101034.41;;;7.05;100.00
41202;BME280;26936;50.524;8.684;2022-11-11T09:10:09;101037.31;;;6.71;100.00
41202;BME280;26936;50.524;8.684;2022-11-11T09:12:34;101044.75;;;7.01;100.00
41202;BME280;26936;50.524;8.684;2022-11-11T09:14:59;101045.59;;;7.05;100.00
41202;BME280;26936;50.524;8.684;2022-11-11T09:17:25;101036.38;;;7.04;100.00
41202;BME280;26936;50.524;8.684;2022-11-11T09:19:51;101047.13;;;6.99;100.00
41202;BME280;26936;50.524;8.684;2022-11-11T09:22:16;101050.38;;;7.01;100.00
41202;BME280;26936;50.524;8.684;2022-11-11T09:24:41;101052.47;;;7.14;100.00
41202;BME280;26936;50.524;8.684;2022-11-11T09:27:08;101054.34;;;6.96;100.00
41202;BME280;26936;50.524;8.684;2022-11-11T09:29:34;101053.53;;;6.96;100.00
41202;BME280;26936;50.524;8.684;2022-11-11T09:31:59;101053.19;;;7.04;100.00
41202;BME280;26936;50.524;8.684;2022-11-11T09:34:24;101066.03;;;7.09;100.00
41202;BME280;26936;50.524;8.684;2022-11-11T09:36:49;101066.81;;;7.06;100.00
41202;BME280;26936;50.524;8.684;2022-11-11T09:39:15;101069.66;;;7.09;100.00
41202;BME280;26936;50.524;8.684;2022-11-11T09:41:57;101063.25;;;7.12;100.00
41202;BME280;26936;50.524;8.684;2022-11-11T09:47:04;101069.00;;;7.33;100.00
41202;BME280;26936;50.524;8.684;2022-11-11T09:52:27;101056.44;;;7.13;100.00
41202;BME280;26936;50.524;8.684;2022-11-11T09:55:22;101065.41;;;7.29;100.00
41202;BME280;26936;50.524;8.684;2022-11-11T09:57:57;101068.97;;;7.26;100.00
41202;BME280;26936;50.524;8.684;2022-11-11T10:00:28;101069.63;;;7.06;100.00
41202;BME280;26936;50.524;8.684;2022-11-11T10:03:00;101060.84;;;7.11;100.00
41202;BME280;26936;50.524;8.684;2022-11-11T10:05:46;101064.47;;;7.11;100.00
41202;BME280;26936;50.524;8.684;2022-11-11T10:08:55;101067.31;;;7.18;100.00
41202;BME280;26936;50.524;8.684;2022-11-11T10:13:53;101067.78;;;7.27;100.00
41202;BME280;26936;50.524;8.684;2022-11-11T10:16:39;101073.38;;;7.27;100.00
41202;BME280;26936;50.524;8.684;2022-11-11T10:21:51;101083.53;;;7.49;100.00
41202;BME280;26936;50.524;8.684;2022-11-11T10:24:32;101081.06;;;7.41;100.00
41202;BME280;26936;50.524;8.684;2022-11-11T10:27:03;101078.66;;;7.39;100.00
41202;BME280;26936;50.524;8.684;2022-11-11T10:29:39;101083.16;;;7.54;100.00
41202;BME280;26936;50.524;8.684;2022-11-11T10:32:25;101077.53;;;7.51;100.00
41202;BME280;26936;50.524;8.684;2022-11-11T10:34:52;101077.53;;;7.51;100.00
41202;BME280;26936;50.524;8.684;2022-11-11T10:37:23;101070.75;;;7.59;100.00
41202;BME280;26936;50.524;8.684;2022-11-11T10:39:57;101080.06;;;7.70;100.00
41202;BME280;26936;50.524;8.684;2022-11-11T10:42:24;101073.22;;;7.67;100.00
41202;BME280;26936;50.524;8.684;2022-11-11T10:44:59;101073.59;;;7.62;100.00
41202;BME280;26936;50.524;8.684;2022-11-11T10:50:01;101081.13;;;7.48;100.00
41202;BME280;26936;50.524;8.684;2022-11-11T10:52:36;101060.81;;;7.65;100.00
41202;BME280;26936;50.524;8.684;2022-11-11T10:55:04;101059.53;;;7.59;100.00
41202;BME280;26936;50.524;8.684;2022-11-11T10:57:38;101056.03;;;7.72;100.00
41202;BME280;26936;50.524;8.684;2022-11-11T11:00:13;101057.25;;;7.75;100.00
41202;BME280;26936;50.524;8.684;2022-11-11T11:05:16;101066.72;;;7.49;100.00
41202;BME280;26936;50.524;8.684;2022-11-11T11:07:50;101067.16;;;7.55;100.00
41202;BME280;26936;50.524;8.684;2022-11-11T11:10:21;101067.44;;;7.39;100.00
41202;BME280;26936;50.524;8.684;2022-11-11T11:12:54;101059.84;;;7.40;100.00
41202;BME280;26936;50.524;8.684;2022-11-11T11:15:26;101071.91;;;7.51;100.00
41202;BME280;26936;50.524;8.684;2022-11-11T11:18:03;101058.38;;;7.67;100.00
41202;BME280;26936;50.524;8.684;2022-11-11T11:20:30;101059.13;;;7.50;100.00
41202;BME280;26936;50.524;8.684;2022-11-11T11:22:56;101061.56;;;7.58;100.00
41202;BME280;26936;50.524;8.684;2022-11-11T11:25:24;101063.47;;;7.47;100.00
41202;BME280;26936;50.524;8.684;2022-11-11T11:27:51;101064.38;;;7.58;100.00
41202;BME280;26936;50.524;8.684;2022-11-11T11:30:21;101063.22;;;7.66;100.00
41202;BME280;26936;50.524;8.684;2022-11-11T11:33:00;101078.03;;;7.63;100.00
41202;BME280;26936;50.524;8.684;2022-11-11T11:35:30;101072.81;;;7.62;100.00
41202;BME280;26936;50.524;8.684;2022-11-11T11:37:56;101067.19;;;7.65;100.00
41202;BME280;26936;50.524;8.684;2022-11-11T11:40:21;101071.63;;;7.66;100.00
41202;BME280;26936;50.524;8.684;2022-11-11T11:42:46;101069.59;;;7.63;100.00
41202;BME280;26936;50.524;8.684;2022-11-11T11:50:42;101066.50;;;7.86;100.00
41202;BME280;26936;50.524;8.684;2022-11-11T11:53:42;101071.66;;;7.77;100.00
41202;BME280;26936;50.524;8.684;2022-11-11T11:56:32;101054.47;;;7.85;100.00
41202;BME280;26936;50.524;8.684;2022-11-11T11:59:13;101049.72;;;7.96;100.00
41202;BME280;26936;50.524;8.684;2022-11-11T12:01:51;101050.16;;;8.05;100.00
41202;BME280;26936;50.524;8.684;2022-11-11T12:04:50;101044.53;;;8.12;100.00
41202;BME280;26936;50.524;8.684;2022-11-11T12:07:37;101041.38;;;8.21;100.00
41202;BME280;26936;50.524;8.684;2022-11-11T12:15:33;101046.59;;;8.22;100.00
41202;BME280;26936;50.524;8.684;2022-11-11T12:18:34;101046.97;;;8.17;100.00
41202;BME280;26936;50.524;8.684;2022-11-11T12:26:42;101045.34;;;8.09;100.00
41202;BME280;26936;50.524;8.684;2022-11-11T12:29:22;101036.53;;;8.04;100.00
41202;BME280;26936;50.524;8.684;2022-11-11T12:40:23;101040.16;;;8.15;100.00
41202;BME280;26936;50.524;8.684;2022-11-11T12:45:34;101041.34;;;8.07;100.00
41202;BME280;26936;50.524;8.684;2022-11-11T12:51:47;101030.19;;;8.24;100.00
41202;BME280;26936;50.524;8.684;2022-11-11T12:54:02;101033.81;;;8.25;100.00
41202;BME280;26936;50.524;8.684;2022-11-11T12:56:43;101027.38;;;8.24;100.00
41202;BME280;26936;50.524;8.684;2022-11-11T12:59:44;101034.97;;;8.20;100.00
41202;BME280;26936;50.524;8.684;2022-11-11T13:05:12;101036.53;;;8.04;100.00
41202;BME280;26936;50.524;8.684;2022-11-11T13:08:25;101032.88;;;7.89;100.00
41202;BME280;26936;50.524;8.684;2022-11-11T13:10:39;101040.03;;;7.83;100.00
41202;BME280;26936;50.524;8.684;2022-11-11T13:13:27;101035.69;;;8.00;100.00
41202;BME280;26936;50.524;8.684;2022-11-11T13:15:59;101034.41;;;7.73;100.00
41202;BME280;26936;50.524;8.684;2022-11-11T13:21:22;101043.53;;;7.59;100.00
41202;BME280;26936;50.524;8.684;2022-11-11T13:23:49;101042.34;;;7.64;100.00
41202;BME280;26936;50.524;8.684;2022-11-11T13:26:27;101036.41;;;7.76;100.00
41202;BME280;26936;50.524;8.684;2022-11-11T13:29:09;101038.84;;;7.81;100.00
41202;BME280;26936;50.524;8.684;2022-11-11T13:31:39;101036.06;;;7.88;100.00
41202;BME280;26936;50.524;8.684;2022-11-11T13:34:10;101031.19;;;7.74;100.00
41202;BME280;26936;50.524;8.684;2022-11-11T13:36:48;101034.41;;;7.80;100.00
41202;BME280;26936;50.524;8.684;2022-11-11T13:39:25;101039.22;;;7.76;100.00
41202;BME280;26936;50.524;8.684;2022-11-11T13:41:54;101037.69;;;7.96;100.00
41202;BME280;26936;50.524;8.684;2022-11-11T13:44:25;101030.50;;;8.02;100.00
41202;BME280;26936;50.524;8.684;2022-11-11T13:46:59;101029.69;;;8.01;100.00
41202;BME280;26936;50.524;8.684;2022-11-11T13:52:30;101030.06;;;7.96;100.00
41202;BME280;26936;50.524;8.684;2022-11-11T13:55:38;101036.50;;;7.97;100.00
41202;BME280;26936;50.524;8.684;2022-11-11T13:58:06;101026.09;;;8.11;100.00
41202;BME280;26936;50.524;8.684;2022-11-11T14:00:36;101026.47;;;8.03;100.00
41202;BME280;26936;50.524;8.684;2022-11-11T14:03:28;101029.66;;;7.98;100.00
41202;BME280;26936;50.524;8.684;2022-11-11T14:13:55;101031.72;;;8.08;100.00
41202;BME280;26936;50.524;8.684;2022-11-11T14:21:58;101016.97;;;8.25;100.00
41202;BME280;26936;50.524;8.684;2022-11-11T14:27:00;101021.19;;;7.77;100.00